sensor_id;sensor_type;location;lat;lon;timestamp;pressure;altitude;pressure_sealevel;temperature;humidity
47913;BME280;33676;51.006;17.180;2022-08-04T00:11:00;100291.58;;;19.15;76.55
47913;BME280;33676;51.006;17.180;2022-08-04T00:13:36;100289.48;;;19.10;76.52
47913;BME280;33676;51.006;17.180;2022-08-04T00:16:28;100289.38;;;19.06;76.75
47913;BME280;33676;51.006;17.180;2022-08-04T00:19:34;100287.36;;;19.02;76.77
47913;BME280;33676;51.006;17.180;2022-08-04T00:22:08;100287.55;;;18.99;76.80
47913;BME280;33676;51.006;17.180;2022-08-04T00:24:38;100293.27;;;18.97;76.87
47913;BME280;33676;51.006;17.180;2022-08-04T00:27:08;100293.10;;;18.95;76.84
47913;BME280;33676;51.006;17.180;2022-08-04T00:29:38;100295.20;;;18.94;76.84
47913;BME280;33676;51.006;17.180;2022-08-04T00:32:07;100296.20;;;18.92;77.11
47913;BME280;33676;51.006;17.180;2022-08-04T00:34:36;100294.52;;;18.89;77.23
47913;BME280;33676;51.006;17.180;2022-08-04T00:37:06;100290.65;;;18.86;77.21
47913;BME280;33676;51.006;17.180;2022-08-04T00:39:35;100294.81;;;18.83;77.28
47913;BME280;33676;51.006;17.180;2022-08-04T00:49:37;100294.29;;;18.69;77.91
47913;BME280;33676;51.006;17.180;2022-08-04T00:52:53;100302.64;;;18.65;78.15
47913;BME280;33676;51.006;17.180;2022-08-04T00:59:13;100305.61;;;18.57;78.21
47913;BME280;33676;51.006;17.180;2022-08-04T01:01:57;100307.11;;;18.54;78.05
47913;BME280;33676;51.006;17.180;2022-08-04T01:05:04;100306.85;;;18.50;78.37
47913;BME280;33676;51.006;17.180;2022-08-04T01:14:06;100307.81;;;18.33;78.87
47913;BME280;33676;51.006;17.180;2022-08-04T01:16:51;100308.88;;;18.28;78.83
47913;BME280;33676;51.006;17.180;2022-08-04T01:28:32;100311.77;;;18.14;79.64
47913;BME280;33676;51.006;17.180;2022-08-04T01:34:19;100307.27;;;18.06;79.67
47913;BME280;33676;51.006;17.180;2022-08-04T01:37:10;100309.79;;;18.04;79.79
47913;BME280;33676;51.006;17.180;2022-08-04T01:39:59;100309.29;;;18.02;80.13
47913;BME280;33676;51.006;17.180;2022-08-04T01:42:32;100311.05;;;18.00;80.30
47913;BME280;33676;51.006;17.180;2022-08-04T01:45:09;100309.36;;;17.97;80.36
47913;BME280;33676;51.006;17.180;2022-08-04T01:47:57;100310.32;;;17.93;80.58
47913;BME280;33676;51.006;17.180;2022-08-04T01:50:26;100310.32;;;17.90;80.69
47913;BME280;33676;51.006;17.180;2022-08-04T01:52:55;100310.28;;;17.87;80.63
47913;BME280;33676;51.006;17.180;2022-08-04T01:55:27;100305.05;;;17.83;80.75
47913;BME280;33676;51.006;17.180;2022-08-04T01:58:18;100301.16;;;17.81;80.95
47913;BME280;33676;51.006;17.180;2022-08-04T02:01:09;100299.91;;;17.80;81.09
47913;BME280;33676;51.006;17.180;2022-08-04T02:03:43;100303.78;;;17.80;81.16
47913;BME280;33676;51.006;17.180;2022-08-04T02:10:05;100300.79;;;17.76;81.33
47913;BME280;33676;51.006;17.180;2022-08-04T02:15:30;100296.48;;;17.71;81.49
47913;BME280;33676;51.006;17.180;2022-08-04T02:18:26;100294.31;;;17.66;81.82
47913;BME280;33676;51.006;17.180;2022-08-04T02:21:01;100297.44;;;17.63;81.85
47913;BME280;33676;51.006;17.180;2022-08-04T02:26:13;100290.02;;;17.55;82.02
47913;BME280;33676;51.006;17.180;2022-08-04T02:31:31;100285.78;;;17.50;82.26
47913;BME280;33676;51.006;17.180;2022-08-04T02:34:24;100283.29;;;17.48;82.25
47913;BME280;33676;51.006;17.180;2022-08-04T02:36:53;100282.55;;;17.47;82.47
47913;BME280;33676;51.006;17.180;2022-08-04T02:39:25;100282.55;;;17.45;82.64
47913;BME280;33676;51.006;17.180;2022-08-04T02:42:15;100279.90;;;17.42;82.61
47913;BME280;33676;51.006;17.180;2022-08-04T02:44:56;100279.56;;;17.41;82.68
47913;BME280;33676;51.006;17.180;2022-08-04T02:47:28;100276.57;;;17.37;82.92
47913;BME280;33676;51.006;17.180;2022-08-04T02:50:17;100277.23;;;17.33;83.10
47913;BME280;33676;51.006;17.180;2022-08-04T02:52:58;100275.96;;;17.30;83.34
47913;BME280;33676;51.006;17.180;2022-08-04T02:55:28;100274.63;;;17.27;83.31
47913;BME280;33676;51.006;17.180;2022-08-04T02:58:01;100271.81;;;17.25;83.38
47913;BME280;33676;51.006;17.180;2022-08-04T03:00:30;100271.27;;;17.24;83.40
47913;BME280;33676;51.006;17.180;2022-08-04T03:03:33;100273.29;;;17.21;83.65
47913;BME280;33676;51.006;17.180;2022-08-04T03:30:10;100281.65;;;16.96;85.05
47913;BME280;33676;51.006;17.180;2022-08-04T03:33:21;100282.94;;;16.95;85.14
47913;BME280;33676;51.006;17.180;2022-08-04T03:39:23;100286.95;;;16.96;85.54
47913;BME280;33676;51.006;17.180;2022-08-04T03:55:29;100297.27;;;17.02;85.71
47913;BME280;33676;51.006;17.180;2022-08-04T04:00:25;100295.56;;;17.05;86.00
47913;BME280;33676;51.006;17.180;2022-08-04T04:09:08;100294.40;;;17.14;86.58
47913;BME280;33676;51.006;17.180;2022-08-04T04:30:18;100291.33;;;17.51;87.23
47913;BME280;33676;51.006;17.180;2022-08-04T04:47:23;100295.23;;;17.95;88.10
47913;BME280;33676;51.006;17.180;2022-08-04T04:50:27;100296.04;;;18.04;88.17
47913;BME280;33676;51.006;17.180;2022-08-04T04:59:14;100304.09;;;18.32;88.69
47913;BME280;33676;51.006;17.180;2022-08-04T05:11:32;100305.20;;;18.74;88.92
47913;BME280;33676;51.006;17.180;2022-08-04T05:14:20;100304.03;;;18.86;88.98
47913;BME280;33676;51.006;17.180;2022-08-04T05:17:26;100300.73;;;19.00;88.94
47913;BME280;33676;51.006;17.180;2022-08-04T05:20:04;100301.27;;;19.12;88.89
47913;BME280;33676;51.006;17.180;2022-08-04T05:23:08;100306.10;;;19.24;88.59
47913;BME280;33676;51.006;17.180;2022-08-04T05:25:50;100305.02;;;19.38;88.50
47913;BME280;33676;51.006;17.180;2022-08-04T05:28:38;100303.89;;;19.51;88.51
47913;BME280;33676;51.006;17.180;2022-08-04T05:31:25;100303.29;;;19.64;88.27
47913;BME280;33676;51.006;17.180;2022-08-04T05:34:07;100302.27;;;19.77;88.20
47913;BME280;33676;51.006;17.180;2022-08-04T05:36:48;100305.80;;;19.90;88.05
47913;BME280;33676;51.006;17.180;2022-08-04T05:39:24;100305.77;;;20.02;87.88
47913;BME280;33676;51.006;17.180;2022-08-04T05:42:01;100306.38;;;20.13;87.63
47913;BME280;33676;51.006;17.180;2022-08-04T05:44:34;100304.17;;;20.26;87.70
47913;BME280;33676;51.006;17.180;2022-08-04T05:47:05;100302.13;;;20.39;87.55
47913;BME280;33676;51.006;17.180;2022-08-04T05:49:35;100303.00;;;20.52;87.61
47913;BME280;33676;51.006;17.180;2022-08-04T05:52:06;100303.05;;;20.67;87.25
47913;BME280;33676;51.006;17.180;2022-08-04T05:54:37;100303.25;;;20.79;86.77
47913;BME280;33676;51.006;17.180;2022-08-04T05:57:08;100304.25;;;20.92;86.38
47913;BME280;33676;51.006;17.180;2022-08-04T05:59:40;100305.56;;;21.04;86.04
47913;BME280;33676;51.006;17.180;2022-08-04T06:02:16;100305.70;;;21.18;85.93
47913;BME280;33676;51.006;17.180;2022-08-04T06:04:49;100300.79;;;21.32;86.06
47913;BME280;33676;51.006;17.180;2022-08-04T06:07:18;100302.30;;;21.44;85.43
47913;BME280;33676;51.006;17.180;2022-08-04T06:09:48;100303.05;;;21.57;85.50
47913;BME280;33676;51.006;17.180;2022-08-04T06:12:31;100308.64;;;21.68;85.67
47913;BME280;33676;51.006;17.180;2022-08-04T06:15:05;100307.36;;;21.82;85.56
47913;BME280;33676;51.006;17.180;2022-08-04T06:18:01;100310.36;;;21.93;85.44
47913;BME280;33676;51.006;17.180;2022-08-04T06:20:51;100317.10;;;22.09;85.22
47913;BME280;33676;51.006;17.180;2022-08-04T06:23:22;100318.23;;;22.21;84.90
47913;BME280;33676;51.006;17.180;2022-08-04T06:25:57;100319.99;;;22.31;84.77
47913;BME280;33676;51.006;17.180;2022-08-04T06:28:29;100322.88;;;22.42;84.43
47913;BME280;33676;51.006;17.180;2022-08-04T06:31:02;100321.92;;;22.54;84.17
47913;BME280;33676;51.006;17.180;2022-08-04T06:33:54;100320.61;;;22.66;84.11
47913;BME280;33676;51.006;17.180;2022-08-04T06:36:23;100323.52;;;22.79;84.12
47913;BME280;33676;51.006;17.180;2022-08-04T06:38:53;100322.23;;;22.91;83.71
47913;BME280;33676;51.006;17.180;2022-08-04T06:41:28;100323.45;;;23.03;83.04
47913;BME280;33676;51.006;17.180;2022-08-04T06:44:00;100327.75;;;23.16;82.80
47913;BME280;33676;51.006;17.180;2022-08-04T06:46:31;100322.13;;;23.30;82.90
47913;BME280;33676;51.006;17.180;2022-08-04T06:49:02;100317.45;;;23.44;82.53
47913;BME280;33676;51.006;17.180;2022-08-04T06:51:36;100320.02;;;23.57;82.01
47913;BME280;33676;51.006;17.180;2022-08-04T06:54:16;100317.66;;;23.71;81.48
47913;BME280;33676;51.006;17.180;2022-08-04T06:56:46;100323.25;;;23.83;81.01
47913;BME280;33676;51.006;17.180;2022-08-04T06:59:18;100322.53;;;23.94;80.58
47913;BME280;33676;51.006;17.180;2022-08-04T07:01:50;100317.59;;;24.05;80.07
47913;BME280;33676;51.006;17.180;2022-08-04T07:04:23;100320.11;;;24.17;79.56
47913;BME280;33676;51.006;17.180;2022-08-04T07:06:52;100316.67;;;24.28;79.29
47913;BME280;33676;51.006;17.180;2022-08-04T07:09:22;100319.92;;;24.40;79.08
47913;BME280;33676;51.006;17.180;2022-08-04T07:11:55;100319.80;;;24.51;78.78
47913;BME280;33676;51.006;17.180;2022-08-04T07:14:24;100317.92;;;24.64;78.16
47913;BME280;33676;51.006;17.180;2022-08-04T07:16:55;100317.80;;;24.75;77.83
47913;BME280;33676;51.006;17.180;2022-08-04T07:19:25;100316.21;;;24.85;77.42
47913;BME280;33676;51.006;17.180;2022-08-04T07:21:54;100324.17;;;24.97;76.96
47913;BME280;33676;51.006;17.180;2022-08-04T07:24:43;100320.31;;;25.35;76.81
47913;BME280;33676;51.006;17.180;2022-08-04T07:27:12;100320.45;;;25.65;76.58
47913;BME280;33676;51.006;17.180;2022-08-04T07:29:41;100320.64;;;25.93;76.42
47913;BME280;33676;51.006;17.180;2022-08-04T07:32:10;100320.04;;;26.15;75.59
47913;BME280;33676;51.006;17.180;2022-08-04T07:34:42;100319.41;;;26.33;74.93
47913;BME280;33676;51.006;17.180;2022-08-04T07:37:17;100319.98;;;26.48;74.74
47913;BME280;33676;51.006;17.180;2022-08-04T07:39:47;100321.79;;;26.54;74.35
47913;BME280;33676;51.006;17.180;2022-08-04T07:42:20;100319.57;;;26.58;74.23
47913;BME280;33676;51.006;17.180;2022-08-04T07:44:49;100321.65;;;26.64;74.11
47913;BME280;33676;51.006;17.180;2022-08-04T07:47:19;100321.19;;;26.69;73.83
47913;BME280;33676;51.006;17.180;2022-08-04T07:49:53;100318.17;;;26.76;74.01
47913;BME280;33676;51.006;17.180;2022-08-04T07:52:26;100319.48;;;26.84;73.38
47913;BME280;33676;51.006;17.180;2022-08-04T07:54:55;100320.44;;;26.92;73.36
47913;BME280;33676;51.006;17.180;2022-08-04T07:57:24;100318.97;;;27.02;73.30
47913;BME280;33676;51.006;17.180;2022-08-04T08:00:11;100313.84;;;27.14;73.07
47913;BME280;33676;51.006;17.180;2022-08-04T08:02:44;100312.74;;;27.25;72.65
47913;BME280;33676;51.006;17.180;2022-08-04T08:05:17;100311.55;;;27.34;72.79
47913;BME280;33676;51.006;17.180;2022-08-04T08:07:50;100310.36;;;27.46;72.71
47913;BME280;33676;51.006;17.180;2022-08-04T08:10:23;100302.31;;;27.57;72.35
47913;BME280;33676;51.006;17.180;2022-08-04T08:12:52;100304.39;;;27.68;71.74
47913;BME280;33676;51.006;17.180;2022-08-04T08:15:22;100305.83;;;27.80;71.58
47913;BME280;33676;51.006;17.180;2022-08-04T08:17:50;100305.99;;;27.91;71.27
47913;BME280;33676;51.006;17.180;2022-08-04T08:20:30;100304.60;;;28.02;71.29
47913;BME280;33676;51.006;17.180;2022-08-04T08:23:01;100300.88;;;28.15;70.90
47913;BME280;33676;51.006;17.180;2022-08-04T08:25:31;100297.95;;;28.25;70.56
47913;BME280;33676;51.006;17.180;2022-08-04T08:28:03;100301.95;;;28.36;70.12
47913;BME280;33676;51.006;17.180;2022-08-04T08:30:33;100305.27;;;28.49;69.82
47913;BME280;33676;51.006;17.180;2022-08-04T08:33:07;100302.34;;;28.59;69.30
47913;BME280;33676;51.006;17.180;2022-08-04T08:38:45;100306.35;;;28.82;68.66
47913;BME280;33676;51.006;17.180;2022-08-04T08:45:19;100307.60;;;29.09;67.67
47913;BME280;33676;51.006;17.180;2022-08-04T08:52:34;100308.42;;;29.40;66.88
47913;BME280;33676;51.006;17.180;2022-08-04T08:54:50;100309.85;;;29.58;66.72
47913;BME280;33676;51.006;17.180;2022-08-04T09:12:59;100304.16;;;30.78;62.56
47913;BME280;33676;51.006;17.180;2022-08-04T09:19:07;100309.29;;;31.02;61.53
47913;BME280;33676;51.006;17.180;2022-08-04T09:21:38;100305.61;;;31.10;61.81
47913;BME280;33676;51.006;17.180;2022-08-04T09:24:21;100306.56;;;31.23;61.88
47913;BME280;33676;51.006;17.180;2022-08-04T09:27:20;100302.19;;;31.41;62.20
47913;BME280;33676;51.006;17.180;2022-08-04T09:30:02;100301.00;;;31.57;62.32
47913;BME280;33676;51.006;17.180;2022-08-04T09:38:17;100290.98;;;32.04;61.40
47913;BME280;33676;51.006;17.180;2022-08-04T09:41:02;100287.75;;;32.20;61.27
47913;BME280;33676;51.006;17.180;2022-08-04T09:53:24;100294.02;;;32.98;60.00
47913;BME280;33676;51.006;17.180;2022-08-04T09:58:56;100293.87;;;33.44;58.60
47913;BME280;33676;51.006;17.180;2022-08-04T10:01:30;100292.59;;;33.66;58.15
47913;BME280;33676;51.006;17.180;2022-08-04T10:04:07;100290.96;;;33.84;58.07
47913;BME280;33676;51.006;17.180;2022-08-04T10:07:18;100288.29;;;34.03;57.60
47913;BME280;33676;51.006;17.180;2022-08-04T10:10:11;100285.48;;;34.19;57.06
47913;BME280;33676;51.006;17.180;2022-08-04T10:21:10;100283.39;;;34.56;54.31
47913;BME280;33676;51.006;17.180;2022-08-04T10:24:29;100280.91;;;34.47;53.53
47913;BME280;33676;51.006;17.180;2022-08-04T10:27:28;100280.66;;;34.39;53.37
47913;BME280;33676;51.006;17.180;2022-08-04T10:30:06;100279.10;;;34.32;53.23
47913;BME280;33676;51.006;17.180;2022-08-04T10:33:08;100275.92;;;34.36;54.02
47913;BME280;33676;51.006;17.180;2022-08-04T10:36:03;100272.71;;;34.71;54.49
47913;BME280;33676;51.006;17.180;2022-08-04T10:39:11;100272.25;;;35.10;54.61
47913;BME280;33676;51.006;17.180;2022-08-04T10:42:11;100271.66;;;35.63;54.74
47913;BME280;33676;51.006;17.180;2022-08-04T10:44:59;100265.25;;;35.99;54.35
47913;BME280;33676;51.006;17.180;2022-08-04T10:47:41;100261.46;;;36.29;53.91
47913;BME280;33676;51.006;17.180;2022-08-04T10:50:22;100261.18;;;36.61;53.91
47913;BME280;33676;51.006;17.180;2022-08-04T10:53:07;100254.78;;;36.93;53.64
47913;BME280;33676;51.006;17.180;2022-08-04T10:55:49;100255.02;;;37.25;53.50
47913;BME280;33676;51.006;17.180;2022-08-04T10:58:44;100247.56;;;37.61;53.23
47913;BME280;33676;51.006;17.180;2022-08-04T11:01:31;100251.36;;;37.86;52.67
47913;BME280;33676;51.006;17.180;2022-08-04T11:04:43;100248.55;;;38.19;52.21
47913;BME280;33676;51.006;17.180;2022-08-04T11:07:15;100246.34;;;38.51;52.02
47913;BME280;33676;51.006;17.180;2022-08-04T11:09:44;100245.70;;;38.74;51.71
47913;BME280;33676;51.006;17.180;2022-08-04T11:12:20;100245.66;;;38.95;51.67
47913;BME280;33676;51.006;17.180;2022-08-04T11:17:49;100245.55;;;39.33;50.46
47913;BME280;33676;51.006;17.180;2022-08-04T11:20:38;100247.10;;;39.60;49.61
47913;BME280;33676;51.006;17.180;2022-08-04T11:23:17;100246.30;;;39.06;47.03
47913;BME280;33676;51.006;17.180;2022-08-04T11:26:12;100248.54;;;38.55;47.06
47913;BME280;33676;51.006;17.180;2022-08-04T11:29:00;100242.70;;;38.25;47.47
47913;BME280;33676;51.006;17.180;2022-08-04T11:31:42;100242.39;;;38.05;47.79
47913;BME280;33676;51.006;17.180;2022-08-04T11:34:21;100239.73;;;37.87;47.95
47913;BME280;33676;51.006;17.180;2022-08-04T11:39:52;100242.50;;;38.72;49.42
47913;BME280;33676;51.006;17.180;2022-08-04T11:42:30;100234.80;;;39.24;49.18
47913;BME280;33676;51.006;17.180;2022-08-04T11:45:13;100235.08;;;39.73;48.97
47913;BME280;33676;51.006;17.180;2022-08-04T11:48:03;100226.11;;;40.14;49.01
47913;BME280;33676;51.006;17.180;2022-08-04T11:50:43;100232.26;;;40.53;48.99
47913;BME280;33676;51.006;17.180;2022-08-04T11:53:19;100232.44;;;40.82;48.68
47913;BME280;33676;51.006;17.180;2022-08-04T11:55:52;100228.59;;;41.08;48.52
47913;BME280;33676;51.006;17.180;2022-08-04T11:58:37;100228.66;;;41.35;48.44
47913;BME280;33676;51.006;17.180;2022-08-04T12:01:27;100230.90;;;41.52;47.76
47913;BME280;33676;51.006;17.180;2022-08-04T12:04:36;100227.87;;;41.77;47.49
47913;BME280;33676;51.006;17.180;2022-08-04T12:10:46;100226.69;;;42.29;46.89
47913;BME280;33676;51.006;17.180;2022-08-04T12:13:35;100227.29;;;42.48;46.83
47913;BME280;33676;51.006;17.180;2022-08-04T12:18:57;100226.08;;;42.76;45.05
47913;BME280;33676;51.006;17.180;2022-08-04T12:21:40;100219.51;;;41.84;43.47
47913;BME280;33676;51.006;17.180;2022-08-04T12:24:26;100212.34;;;40.96;43.20
47913;BME280;33676;51.006;17.180;2022-08-04T12:27:03;100213.71;;;40.37;43.19
47913;BME280;33676;51.006;17.180;2022-08-04T12:29:35;100217.21;;;40.04;43.54
47913;BME280;33676;51.006;17.180;2022-08-04T12:35:20;100207.25;;;39.90;44.75
47913;BME280;33676;51.006;17.180;2022-08-04T12:38:06;100205.95;;;40.62;45.32
47913;BME280;33676;51.006;17.180;2022-08-04T12:40:50;100211.18;;;41.26;45.27
47913;BME280;33676;51.006;17.180;2022-08-04T12:43:28;100213.33;;;41.86;45.11
47913;BME280;33676;51.006;17.180;2022-08-04T12:46:03;100208.98;;;42.46;45.14
47913;BME280;33676;51.006;17.180;2022-08-04T12:48:37;100211.98;;;43.03;44.72
47913;BME280;33676;51.006;17.180;2022-08-04T12:51:07;100209.15;;;43.53;43.93
47913;BME280;33676;51.006;17.180;2022-08-04T12:53:57;100207.44;;;43.89;44.02
47913;BME280;33676;51.006;17.180;2022-08-04T12:56:27;100201.55;;;44.26;43.77
47913;BME280;33676;51.006;17.180;2022-08-04T12:59:08;100197.81;;;44.54;43.40
47913;BME280;33676;51.006;17.180;2022-08-04T13:01:48;100188.64;;;44.90;42.99
47913;BME280;33676;51.006;17.180;2022-08-04T13:04:41;100187.34;;;45.22;43.12
47913;BME280;33676;51.006;17.180;2022-08-04T13:07:22;100183.60;;;45.59;43.70
47913;BME280;33676;51.006;17.180;2022-08-04T13:09:52;100187.71;;;46.00;43.76
47913;BME280;33676;51.006;17.180;2022-08-04T13:12:24;100185.16;;;46.43;43.86
47913;BME280;33676;51.006;17.180;2022-08-04T13:15:11;100183.44;;;46.44;41.81
47913;BME280;33676;51.006;17.180;2022-08-04T13:18:02;100180.89;;;45.29;41.05
47913;BME280;33676;51.006;17.180;2022-08-04T13:20:35;100179.29;;;44.41;40.12
47913;BME280;33676;51.006;17.180;2022-08-04T13:23:11;100175.29;;;43.60;39.80
47913;BME280;33676;51.006;17.180;2022-08-04T13:25:52;100174.90;;;42.98;40.14
47913;BME280;33676;51.006;17.180;2022-08-04T13:28:47;100170.85;;;42.39;40.20
47913;BME280;33676;51.006;17.180;2022-08-04T13:31:22;100167.03;;;42.57;41.62
47913;BME280;33676;51.006;17.180;2022-08-04T13:33:55;100164.29;;;43.32;41.98
47913;BME280;33676;51.006;17.180;2022-08-04T13:36:30;100161.97;;;44.14;42.00
47913;BME280;33676;51.006;17.180;2022-08-04T13:39:13;100163.14;;;44.82;42.10
47913;BME280;33676;51.006;17.180;2022-08-04T13:41:50;100161.60;;;45.57;42.03
47913;BME280;33676;51.006;17.180;2022-08-04T13:44:32;100160.17;;;46.25;42.26
47913;BME280;33676;51.006;17.180;2022-08-04T13:47:14;100164.25;;;46.89;41.96
47913;BME280;33676;51.006;17.180;2022-08-04T13:50:19;100163.59;;;47.41;41.62
47913;BME280;33676;51.006;17.180;2022-08-04T13:52:52;100159.52;;;48.01;41.29
47913;BME280;33676;51.006;17.180;2022-08-04T13:57:58;100155.30;;;48.69;40.93
47913;BME280;33676;51.006;17.180;2022-08-04T14:00:53;100149.42;;;49.12;40.96
47913;BME280;33676;51.006;17.180;2022-08-04T14:03:44;100147.55;;;49.77;41.29
47913;BME280;33676;51.006;17.180;2022-08-04T14:06:34;100146.17;;;50.35;41.33
47913;BME280;33676;51.006;17.180;2022-08-04T14:09:21;100149.13;;;49.89;38.87
47913;BME280;33676;51.006;17.180;2022-08-04T14:12:12;100146.42;;;47.79;38.14
47913;BME280;33676;51.006;17.180;2022-08-04T14:15:01;100141.77;;;46.00;38.02
47913;BME280;33676;51.006;17.180;2022-08-04T14:17:30;100132.55;;;45.05;38.60
47913;BME280;33676;51.006;17.180;2022-08-04T14:20:00;100130.06;;;44.28;39.06
47913;BME280;33676;51.006;17.180;2022-08-04T14:22:33;100129.35;;;43.76;39.70
47913;BME280;33676;51.006;17.180;2022-08-04T14:25:08;100130.21;;;44.02;40.53
47913;BME280;33676;51.006;17.180;2022-08-04T14:27:55;100126.46;;;44.29;40.63
47913;BME280;33676;51.006;17.180;2022-08-04T14:30:35;100117.80;;;44.82;40.97
47913;BME280;33676;51.006;17.180;2022-08-04T14:33:10;100121.01;;;45.70;41.39
47913;BME280;33676;51.006;17.180;2022-08-04T14:35:59;100117.66;;;46.44;41.86
47913;BME280;33676;51.006;17.180;2022-08-04T14:41:12;100120.65;;;47.80;41.68
47913;BME280;33676;51.006;17.180;2022-08-04T14:46:21;100115.66;;;48.60;41.21
47913;BME280;33676;51.006;17.180;2022-08-04T14:49:08;100109.48;;;48.68;41.06
47913;BME280;33676;51.006;17.180;2022-08-04T14:51:45;100104.88;;;48.76;40.84
47913;BME280;33676;51.006;17.180;2022-08-04T14:54:14;100101.05;;;48.98;41.01
47913;BME280;33676;51.006;17.180;2022-08-04T14:56:57;100110.20;;;49.30;41.01
47913;BME280;33676;51.006;17.180;2022-08-04T14:59:26;100119.39;;;49.82;40.93
47913;BME280;33676;51.006;17.180;2022-08-04T15:02:13;100118.58;;;49.34;38.97
47913;BME280;33676;51.006;17.180;2022-08-04T15:04:44;100114.73;;;47.93;38.48
47913;BME280;33676;51.006;17.180;2022-08-04T15:07:13;100110.77;;;46.92;38.78
47913;BME280;33676;51.006;17.180;2022-08-04T15:09:44;100106.96;;;46.05;38.99
47913;BME280;33676;51.006;17.180;2022-08-04T15:12:22;100102.42;;;45.24;39.17
47913;BME280;33676;51.006;17.180;2022-08-04T15:15:14;100097.34;;;44.73;39.94
47913;BME280;33676;51.006;17.180;2022-08-04T15:18:09;100094.72;;;45.67;41.09
47913;BME280;33676;51.006;17.180;2022-08-04T15:20:39;100092.63;;;46.93;41.36
47913;BME280;33676;51.006;17.180;2022-08-04T15:23:09;100091.71;;;48.11;41.49
47913;BME280;33676;51.006;17.180;2022-08-04T15:25:46;100089.95;;;49.28;41.87
47913;BME280;33676;51.006;17.180;2022-08-04T15:28:18;100092.59;;;50.18;41.28
47913;BME280;33676;51.006;17.180;2022-08-04T15:30:53;100097.82;;;51.09;41.38
47913;BME280;33676;51.006;17.180;2022-08-04T15:33:24;100098.79;;;51.61;40.74
47913;BME280;33676;51.006;17.180;2022-08-04T15:39:09;100098.06;;;52.93;40.97
47913;BME280;33676;51.006;17.180;2022-08-04T15:47:19;100088.81;;;54.12;38.90
47913;BME280;33676;51.006;17.180;2022-08-04T15:50:10;100084.13;;;52.20;37.50
47913;BME280;33676;51.006;17.180;2022-08-04T15:55:42;100069.05;;;48.83;37.54
47913;BME280;33676;51.006;17.180;2022-08-04T15:58:13;100066.61;;;47.94;37.82
47913;BME280;33676;51.006;17.180;2022-08-04T16:16:47;100071.13;;;52.73;40.23
47913;BME280;33676;51.006;17.180;2022-08-04T16:19:51;100069.94;;;53.44;40.00
47913;BME280;33676;51.006;17.180;2022-08-04T16:22:38;100068.86;;;54.15;39.99
47913;BME280;33676;51.006;17.180;2022-08-04T16:25:08;100069.90;;;54.68;40.00
47913;BME280;33676;51.006;17.180;2022-08-04T16:27:41;100069.29;;;55.03;39.99
47913;BME280;33676;51.006;17.180;2022-08-04T16:30:12;100076.38;;;55.62;40.14
47913;BME280;33676;51.006;17.180;2022-08-04T16:32:46;100078.44;;;56.08;40.09
47913;BME280;33676;51.006;17.180;2022-08-04T16:35:24;100078.77;;;56.38;39.84
47913;BME280;33676;51.006;17.180;2022-08-04T16:38:14;100071.34;;;56.58;39.61
47913;BME280;33676;51.006;17.180;2022-08-04T16:40:43;100072.27;;;56.17;38.13
47913;BME280;33676;51.006;17.180;2022-08-04T16:43:14;100064.14;;;53.78;36.38
47913;BME280;33676;51.006;17.180;2022-08-04T16:46:03;100062.64;;;51.50;36.27
47913;BME280;33676;51.006;17.180;2022-08-04T16:48:34;100058.91;;;49.51;36.61
47913;BME280;33676;51.006;17.180;2022-08-04T16:51:09;100050.23;;;48.17;37.01
47913;BME280;33676;51.006;17.180;2022-08-04T16:53:45;100049.71;;;47.10;37.60
47913;BME280;33676;51.006;17.180;2022-08-04T16:56:32;100043.55;;;46.98;38.50
47913;BME280;33676;51.006;17.180;2022-08-04T16:59:11;100042.63;;;47.89;39.21
47913;BME280;33676;51.006;17.180;2022-08-04T17:01:49;100041.77;;;48.90;39.42
47913;BME280;33676;51.006;17.180;2022-08-04T17:04:29;100042.64;;;49.81;39.58
47913;BME280;33676;51.006;17.180;2022-08-04T17:07:01;100042.60;;;50.64;39.41
47913;BME280;33676;51.006;17.180;2022-08-04T17:09:31;100047.70;;;51.21;39.57
47913;BME280;33676;51.006;17.180;2022-08-04T17:12:00;100050.07;;;51.54;39.44
47913;BME280;33676;51.006;17.180;2022-08-04T17:14:30;100051.62;;;51.82;39.43
47913;BME280;33676;51.006;17.180;2022-08-04T17:17:00;100053.26;;;52.18;39.45
47913;BME280;33676;51.006;17.180;2022-08-04T17:19:29;100051.27;;;52.35;39.24
47913;BME280;33676;51.006;17.180;2022-08-04T17:22:05;100050.10;;;52.46;39.23
47913;BME280;33676;51.006;17.180;2022-08-04T17:24:38;100048.77;;;52.41;38.88
47913;BME280;33676;51.006;17.180;2022-08-04T17:27:09;100053.46;;;52.28;38.89
47913;BME280;33676;51.006;17.180;2022-08-04T17:29:58;100054.89;;;52.08;39.09
47913;BME280;33676;51.006;17.180;2022-08-04T17:32:27;100053.13;;;51.87;38.92
47913;BME280;33676;51.006;17.180;2022-08-04T17:34:59;100057.15;;;51.74;38.64
47913;BME280;33676;51.006;17.180;2022-08-04T17:37:31;100054.55;;;51.44;38.46
47913;BME280;33676;51.006;17.180;2022-08-04T17:40:19;100048.53;;;49.01;36.90
47913;BME280;33676;51.006;17.180;2022-08-04T17:43:08;100044.96;;;46.16;37.35
47913;BME280;33676;51.006;17.180;2022-08-04T17:46:17;100038.45;;;43.84;38.59
47913;BME280;33676;51.006;17.180;2022-08-04T17:51:59;100037.67;;;40.72;40.23
47913;BME280;33676;51.006;17.180;2022-08-04T17:54:38;100038.91;;;40.46;40.78
47913;BME280;33676;51.006;17.180;2022-08-04T17:57:20;100037.50;;;40.28;41.56
47913;BME280;33676;51.006;17.180;2022-08-04T18:02:30;100036.55;;;40.25;42.00
47913;BME280;33676;51.006;17.180;2022-08-04T18:05:04;100033.66;;;40.08;42.14